Time;durP1;ratioP1;P1;durP2;ratioP2;P2;SDS_P1;SDS_P2;PMS_P1;PMS_P2;Temp;Humidity;BMP_temperature;BMP_pressure;BME280_temperature;BME280_humidity;BME280_pressure;Samples;Min_cycle;Max_cycle;Signal;HPM_P1;HPM_P2
2021/01/12 00:01:14;;;;;;;37.67;34.30;;;-0.20;81.10;;;;;;5016925;28;20201;-77
2021/01/12 00:03:41;;;;;;;38.35;35.00;;;-0.10;78.50;;;;;;5018270;28;20235;-77
2021/01/12 00:06:08;;;;;;;37.92;34.72;;;-0.10;77.80;;;;;;5021285;28;20302;-77
2021/01/12 00:08:34;;;;;;;290.08;58.25;;;-0.10;77.20;;;;;;5035787;28;20289;-77
2021/01/12 00:11:00;;;;;;;38.13;34.70;;;-0.10;77.70;;;;;;5035856;28;20288;-77
2021/01/12 00:13:30;;;;;;;37.58;34.08;;;0.00;78.00;;;;;;5035881;28;20276;-77
2021/01/12 00:15:56;;;;;;;38.45;35.03;;;-0.10;78.20;;;;;;5018446;28;20235;-77
2021/01/12 00:18:22;;;;;;;38.10;34.70;;;0.00;78.00;;;;;;5016840;28;20186;-77
2021/01/12 00:20:49;;;;;;;38.00;34.55;;;0.00;76.60;;;;;;5015991;28;20255;-77
2021/01/12 00:23:15;;;;;;;38.47;35.05;;;0.00;76.00;;;;;;5015869;28;20683;-77
2021/01/12 00:25:41;;;;;;;37.97;34.67;;;-0.10;76.60;;;;;;5029708;28;20194;-77
2021/01/12 00:28:08;;;;;;;39.47;35.85;;;-0.20;76.40;;;;;;5035118;28;20233;-77
2021/01/12 00:30:35;;;;;;;37.72;34.53;;;-0.10;76.10;;;;;;5035375;28;20234;-77
2021/01/12 00:33:01;;;;;;;38.90;35.40;;;-0.10;77.10;;;;;;5035337;28;20205;-77
2021/01/12 00:35:27;;;;;;;38.92;35.25;;;-0.10;76.40;;;;;;5022879;28;20701;-77
2021/01/12 00:37:54;;;;;;;38.45;35.05;;;-0.20;78.00;;;;;;5015480;28;20218;-77
2021/01/12 00:40:20;;;;;;;37.92;34.60;;;-0.20;78.50;;;;;;5015526;28;20198;-77
2021/01/12 00:42:50;;;;;;;37.90;34.53;;;-0.20;79.00;;;;;;5018135;28;20219;-77
2021/01/12 00:45:16;;;;;;;37.05;33.75;;;-0.20;78.40;;;;;;5035357;28;20208;-77
2021/01/12 00:47:44;;;;;;;39.15;35.75;;;-0.10;76.90;;;;;;5034398;28;20577;-77
2021/01/12 00:50:11;;;;;;;38.53;34.97;;;0.00;77.10;;;;;;5034946;28;20202;-77
2021/01/12 00:52:38;;;;;;;37.55;34.33;;;0.00;77.10;;;;;;5033246;28;20205;-77
2021/01/12 00:55:05;;;;;;;37.92;34.40;;;-0.10;76.70;;;;;;5014911;28;20732;-77
2021/01/12 00:57:31;;;;;;;38.13;34.95;;;-0.10;77.30;;;;;;5014866;28;20219;-77
2021/01/12 00:59:58;;;;;;;38.08;34.53;;;0.00;76.60;;;;;;5015179;28;20209;-77
2021/01/12 01:02:24;;;;;;;38.13;34.67;;;0.10;76.60;;;;;;5015245;28;20202;-77
2021/01/12 01:04:52;;;;;;;37.90;34.65;;;0.10;76.70;;;;;;5016057;28;20226;-77
2021/01/12 01:07:18;;;;;;;35.97;32.67;;;0.10;78.50;;;;;;5034641;28;20226;-77
2021/01/12 01:09:45;;;;;;;36.50;33.33;;;0.20;77.20;;;;;;5034867;28;20205;-77
2021/01/12 01:12:13;;;;;;;36.88;33.53;;;0.20;76.80;;;;;;5034747;28;20202;-77
2021/01/12 01:14:39;;;;;;;36.28;32.78;;;0.20;78.00;;;;;;5022179;28;20190;-77
2021/01/12 01:17:06;;;;;;;36.05;32.85;;;0.30;75.70;;;;;;5015145;28;20319;-76
2021/01/12 01:19:32;;;;;;;34.70;32.08;;;0.30;77.10;;;;;;5014619;28;20656;-77
2021/01/12 01:21:59;;;;;;;37.10;33.97;;;0.40;76.90;;;;;;5014774;28;20199;-77
2021/01/12 01:24:26;;;;;;;35.85;32.85;;;0.40;77.60;;;;;;5023860;28;20191;-77
2021/01/12 01:26:56;;;;;;;37.20;34.08;;;0.40;76.70;;;;;;5034154;28;20709;-77
2021/01/12 01:29:23;;;;;;;36.50;33.30;;;0.60;74.80;;;;;;5035181;28;20196;-77
2021/01/12 01:31:49;;;;;;;36.15;32.95;;;0.50;74.70;;;;;;5033866;28;20208;-77
2021/01/12 01:34:15;;;;;;;35.78;32.65;;;0.60;75.00;;;;;;5025754;28;20196;-77
2021/01/12 01:36:42;;;;;;;36.05;32.95;;;0.50;74.80;;;;;;5013887;28;20220;-77
2021/01/12 01:39:09;;;;;;;34.92;31.83;;;0.60;74.50;;;;;;5013902;28;20233;-77
2021/01/12 01:41:35;;;;;;;34.88;31.98;;;0.60;74.70;;;;;;5014692;28;20613;-76
2021/01/12 01:44:02;;;;;;;35.75;32.85;;;0.70;74.30;;;;;;5020333;28;20563;-77
2021/01/12 01:46:28;;;;;;;34.65;31.77;;;0.70;74.40;;;;;;5018464;28;20224;-76
2021/01/12 01:48:55;;;;;;;35.03;32.20;;;0.80;74.50;;;;;;5014188;28;20192;-76
2021/01/12 01:51:21;;;;;;;35.35;32.33;;;0.90;74.00;;;;;;5014139;28;20210;-76
2021/01/12 01:53:48;;;;;;;34.53;31.48;;;0.80;74.90;;;;;;5013951;28;20257;-77
2021/01/12 01:56:16;;;;;;;33.88;30.90;;;0.80;74.40;;;;;;5018845;28;20218;-77
2021/01/12 01:58:42;;;;;;;33.85;30.77;;;0.80;74.70;;;;;;5033328;28;20726;-77
2021/01/12 02:01:10;;;;;;;32.53;29.83;;;0.80;75.00;;;;;;5033420;28;20206;-77
2021/01/12 02:03:40;;;;;;;33.13;30.30;;;0.80;74.70;;;;;;5033629;28;20290;-77
2021/01/12 02:06:13;;;;;;;33.67;30.95;;;0.70;74.90;;;;;;5033285;28;20311;-77
2021/01/12 02:08:48;;;;;;;34.15;31.25;;;0.70;76.10;;;;;;5026657;28;20221;-77
2021/01/12 02:11:16;;;;;;;31.52;28.92;;;0.70;75.20;;;;;;5013669;28;20653;-77
2021/01/12 02:13:44;;;;;;;32.75;30.08;;;0.80;74.80;;;;;;5014799;28;20195;-77
2021/01/12 02:16:11;;;;;;;32.83;30.23;;;0.70;75.00;;;;;;5013443;28;20323;-77
2021/01/12 02:18:38;;;;;;;33.30;30.50;;;0.70;75.20;;;;;;5013566;28;20253;-77
2021/01/12 02:21:06;;;;;;;32.83;30.25;;;0.80;75.70;;;;;;5020111;28;20218;-77
2021/01/12 02:23:46;;;;;;;32.60;30.00;;;0.80;75.60;;;;;;5032954;28;20196;-77
2021/01/12 02:26:12;;;;;;;31.55;29.08;;;0.90;74.90;;;;;;5033095;28;20219;-77
2021/01/12 02:28:38;;;;;;;32.47;29.90;;;0.90;74.90;;;;;;5033171;28;20215;-77
2021/01/12 02:31:05;;;;;;;31.95;29.35;;;1.00;74.90;;;;;;5032682;28;20203;-77
2021/01/12 02:33:31;;;;;;;31.13;28.73;;;1.00;75.10;;;;;;5017295;28;20651;-77
2021/01/12 02:35:59;;;;;;;31.90;29.40;;;1.00;75.50;;;;;;5032469;28;20207;-77
2021/01/12 02:38:26;;;;;;;31.23;28.80;;;1.00;76.40;;;;;;5032990;28;20200;-76
2021/01/12 02:40:53;;;;;;;31.05;28.77;;;1.20;75.00;;;;;;5032854;28;20202;-76
2021/01/12 02:43:20;;;;;;;30.80;28.45;;;1.10;76.30;;;;;;5028931;28;20190;-76
2021/01/12 02:45:46;;;;;;;28.77;26.75;;;1.10;76.70;;;;;;5012850;28;20732;-76
2021/01/12 02:48:14;;;;;;;30.65;28.08;;;1.00;77.30;;;;;;5013093;28;20693;-76
2021/01/12 02:50:41;;;;;;;29.95;27.73;;;1.10;75.70;;;;;;5012849;28;20239;-76
2021/01/12 02:53:07;;;;;;;31.13;28.88;;;1.10;76.30;;;;;;5014137;28;20237;-76
2021/01/12 02:55:34;;;;;;;30.95;28.45;;;1.20;75.00;;;;;;5032251;28;20209;-76
2021/01/12 02:58:01;;;;;;;31.13;28.63;;;1.20;75.50;;;;;;5032661;28;20219;-76
2021/01/12 03:00:27;;;;;;;30.23;27.88;;;1.20;75.00;;;;;;5032758;28;20581;-76
2021/01/12 03:02:54;;;;;;;31.15;28.55;;;1.20;75.40;;;;;;5030971;28;20275;-76
2021/01/12 03:05:20;;;;;;;30.27;27.98;;;1.20;75.70;;;;;;5020773;28;20667;-76
2021/01/12 03:07:46;;;;;;;31.63;29.23;;;1.30;75.40;;;;;;5012530;28;20586;-76
2021/01/12 03:10:13;;;;;;;31.38;29.05;;;1.40;74.30;;;;;;5018641;28;20686;-76
2021/01/12 03:12:40;;;;;;;30.25;28.15;;;1.40;74.20;;;;;;5032410;28;20196;-76
2021/01/12 03:15:09;;;;;;;30.08;27.88;;;1.30;74.20;;;;;;5032881;28;20205;-76
2021/01/12 03:17:35;;;;;;;30.33;28.13;;;1.40;74.20;;;;;;5028565;28;20211;-76
2021/01/12 03:20:01;;;;;;;30.35;27.98;;;1.40;74.10;;;;;;5012714;28;20211;-76
2021/01/12 03:22:28;;;;;;;31.55;29.35;;;1.50;73.80;;;;;;5012864;28;20208;-76
2021/01/12 03:24:54;;;;;;;30.85;28.65;;;1.40;74.30;;;;;;5012830;28;20274;-76
2021/01/12 03:27:20;;;;;;;30.70;28.40;;;1.50;74.20;;;;;;5013477;28;20229;-76
2021/01/12 03:29:47;;;;;;;30.10;27.73;;;1.40;74.80;;;;;;5032339;28;20250;-76
2021/01/12 03:32:14;;;;;;;30.00;27.80;;;1.50;74.40;;;;;;5031984;28;20196;-76
2021/01/12 03:34:40;;;;;;;30.13;27.83;;;1.50;74.40;;;;;;5032524;28;20269;-76
2021/01/12 03:37:07;;;;;;;29.40;27.20;;;1.60;74.90;;;;;;5032149;28;20209;-76
2021/01/12 03:39:33;;;;;;;30.67;28.38;;;1.60;74.60;;;;;;5030694;28;20243;-77
2021/01/12 03:41:59;;;;;;;30.98;28.77;;;1.70;73.90;;;;;;5024302;28;20194;-76
2021/01/12 03:44:26;;;;;;;29.70;27.45;;;1.70;73.90;;;;;;5012505;28;20278;-76
2021/01/12 03:46:52;;;;;;;29.65;27.55;;;1.80;73.90;;;;;;5012206;28;20675;-76
2021/01/12 03:49:23;;;;;;;29.55;27.45;;;1.70;74.00;;;;;;5012525;28;20220;-76
2021/01/12 03:51:49;;;;;;;27.92;26.10;;;1.70;74.30;;;;;;5018526;28;20681;-76
2021/01/12 03:54:16;;;;;;;29.85;27.60;;;1.70;74.70;;;;;;5032003;28;20667;-76
2021/01/12 03:56:42;;;;;;;28.90;26.80;;;1.70;75.10;;;;;;5031850;28;20224;-76
2021/01/12 03:59:08;;;;;;;29.15;26.98;;;1.70;75.80;;;;;;5032108;28;20199;-76
2021/01/12 04:01:40;;;;;;;29.13;26.95;;;1.70;75.40;;;;;;5031311;28;20220;-76
2021/01/12 04:04:07;;;;;;;29.38;27.27;;;1.70;75.40;;;;;;5035005;28;20208;-76
2021/01/12 04:06:35;;;;;;;28.52;26.52;;;1.70;75.60;;;;;;5035522;28;20220;-77
2021/01/12 04:09:01;;;;;;;28.88;26.73;;;1.70;75.40;;;;;;5035567;28;20662;-76
2021/01/12 04:11:30;;;;;;;27.80;25.80;;;1.80;75.30;;;;;;5035022;28;20620;-76
2021/01/12 04:13:57;;;;;;;28.98;26.98;;;1.80;76.60;;;;;;5035773;28;20286;-76
2021/01/12 04:16:24;;;;;;;28.15;26.25;;;1.70;76.50;;;;;;5017173;28;20736;-76
2021/01/12 04:18:50;;;;;;;30.17;28.20;;;1.80;76.00;;;;;;5015799;28;20197;-76
2021/01/12 04:21:17;;;;;;;27.98;26.08;;;1.90;75.60;;;;;;5015878;28;20202;-77
2021/01/12 04:23:44;;;;;;;27.33;25.45;;;1.90;76.20;;;;;;5021299;28;20238;-76
2021/01/12 04:26:10;;;;;;;27.95;25.85;;;1.90;76.20;;;;;;5016935;28;20226;-76
2021/01/12 04:28:37;;;;;;;26.83;25.10;;;1.90;76.30;;;;;;5015619;28;20228;-76
2021/01/12 04:31:03;;;;;;;27.27;25.40;;;1.80;78.30;;;;;;5015493;28;20197;-76
2021/01/12 04:33:29;;;;;;;30.60;28.38;;;1.80;77.20;;;;;;5015512;28;20682;-76
2021/01/12 04:35:56;;;;;;;28.25;26.08;;;1.80;77.30;;;;;;5035027;28;20201;-76
2021/01/12 04:38:22;;;;;;;27.13;25.15;;;1.90;77.30;;;;;;5035180;28;20690;-76
2021/01/12 04:40:50;;;;;;;30.27;28.23;;;2.00;76.80;;;;;;5035304;28;20261;-76
2021/01/12 04:43:16;;;;;;;28.23;26.27;;;1.90;78.60;;;;;;5026930;28;20604;-77
2021/01/12 04:45:42;;;;;;;28.33;26.33;;;1.90;77.30;;;;;;5034198;28;20195;-76
2021/01/12 04:48:09;;;;;;;27.77;25.88;;;1.90;77.20;;;;;;5034817;28;20236;-76
2021/01/12 04:50:36;;;;;;;28.73;26.52;;;1.90;77.10;;;;;;5034972;28;20201;-76
2021/01/12 04:53:02;;;;;;;27.95;26.05;;;1.90;76.70;;;;;;5027740;28;20219;-76
2021/01/12 04:55:29;;;;;;;28.33;26.33;;;2.00;76.10;;;;;;5014525;28;20212;-76
2021/01/12 04:57:56;;;;;;;30.17;28.10;;;2.00;76.30;;;;;;5015003;28;20217;-76
2021/01/12 05:00:25;;;;;;;28.73;26.73;;;2.00;75.90;;;;;;5014830;28;20200;-76
2021/01/12 05:02:59;;;;;;;30.50;28.23;;;1.90;76.50;;;;;;5021086;28;20280;-76
2021/01/12 05:05:28;;;;;;;29.67;27.67;;;1.90;76.50;;;;;;5034544;28;20710;-76
2021/01/12 05:07:59;;;;;;;30.60;28.10;;;2.00;76.30;;;;;;5026159;28;20232;-76
2021/01/12 05:10:26;;;;;;;29.00;26.80;;;2.00;76.10;;;;;;5014892;28;20196;-76
2021/01/12 05:12:56;;;;;;;29.88;27.90;;;2.00;76.20;;;;;;5029461;28;20221;-77
2021/01/12 05:15:25;;;;;;;31.40;29.10;;;2.00;76.20;;;;;;5033632;28;20208;-76
2021/01/12 05:17:55;;;;;;;29.02;27.02;;;2.00;76.20;;;;;;5023883;28;20209;-76
2021/01/12 05:20:25;;;;;;;29.38;27.17;;;2.10;76.10;;;;;;5014542;28;20602;-76
2021/01/12 05:22:57;;;;;;;28.67;26.77;;;2.10;76.30;;;;;;5014602;28;20652;-77
2021/01/12 05:25:33;;;;;;;29.40;27.20;;;2.10;76.30;;;;;;5014542;28;20211;-76
2021/01/12 05:28:02;;;;;;;29.42;27.23;;;2.00;76.40;;;;;;5025539;28;20283;-76
2021/01/12 05:30:29;;;;;;;29.10;27.10;;;1.90;77.60;;;;;;5034100;28;20251;-76
2021/01/12 05:32:57;;;;;;;30.95;28.55;;;1.90;77.50;;;;;;5034175;28;20239;-76
2021/01/12 05:35:28;;;;;;;29.33;27.13;;;2.00;77.60;;;;;;5034035;28;20197;-76
2021/01/12 05:38:01;;;;;;;29.05;26.73;;;1.90;77.50;;;;;;5034029;28;20625;-76
2021/01/12 05:40:31;;;;;;;29.05;27.05;;;1.90;77.90;;;;;;5017557;28;20288;-76
2021/01/12 05:43:08;;;;;;;29.50;27.38;;;2.00;77.70;;;;;;5014131;28;20563;-76
2021/01/12 05:45:37;;;;;;;30.20;28.05;;;2.00;77.80;;;;;;5014155;28;20197;-77
2021/01/12 05:48:04;;;;;;;28.98;26.75;;;2.00;78.10;;;;;;5013943;28;20591;-76
2021/01/12 05:50:31;;;;;;;28.88;26.65;;;2.10;78.30;;;;;;5030080;28;20206;-77
2021/01/12 05:53:07;;;;;;;27.33;25.52;;;2.10;78.40;;;;;;5033252;28;20250;-76
2021/01/12 05:55:39;;;;;;;29.90;27.70;;;2.10;78.60;;;;;;5032864;28;20207;-76
2021/01/12 05:58:12;;;;;;;28.27;26.38;;;2.10;78.80;;;;;;5033485;28;20265;-76
2021/01/12 06:00:42;;;;;;;29.20;26.13;;;2.10;79.00;;;;;;5033198;28;20243;-76
2021/01/12 06:03:14;;;;;;;29.67;27.42;;;2.10;78.80;;;;;;5033193;28;20282;-76
2021/01/12 06:05:43;;;;;;;28.77;26.65;;;2.10;79.10;;;;;;5013672;28;20229;-76
2021/01/12 06:08:11;;;;;;;27.63;25.48;;;2.20;79.30;;;;;;5013263;28;20230;-77
2021/01/12 06:10:40;;;;;;;27.20;25.38;;;2.20;79.10;;;;;;5030527;28;20215;-76
2021/01/12 06:13:13;;;;;;;27.88;25.98;;;2.30;79.40;;;;;;5033166;28;20201;-77
2021/01/12 06:15:42;;;;;;;28.40;26.50;;;2.30;79.60;;;;;;5013565;28;20263;-76
2021/01/12 06:18:12;;;;;;;26.45;24.50;;;2.30;79.50;;;;;;5013437;28;20695;-76
2021/01/12 06:20:49;;;;;;;27.65;25.85;;;2.30;79.90;;;;;;5013713;28;20657;-77
2021/01/12 06:23:25;;;;;;;26.88;25.13;;;2.40;79.40;;;;;;5022122;28;20701;-76
2021/01/12 06:25:53;;;;;;;27.98;25.98;;;2.40;79.40;;;;;;5032893;28;20207;-76
2021/01/12 06:28:19;;;;;;;30.05;27.95;;;2.40;79.00;;;;;;5033139;28;20279;-76
2021/01/12 06:30:47;;;;;;;28.13;26.00;;;2.40;78.80;;;;;;5016490;28;20204;-76
2021/01/12 06:33:13;;;;;;;27.42;25.55;;;2.40;78.90;;;;;;5013371;28;20190;-76
2021/01/12 06:35:41;;;;;;;27.98;26.00;;;2.40;78.60;;;;;;5013198;28;20607;-76
2021/01/12 06:38:08;;;;;;;25.27;23.67;;;2.40;78.80;;;;;;5013287;28;20276;-76
2021/01/12 06:40:36;;;;;;;27.40;25.40;;;2.40;78.80;;;;;;5016623;28;20192;-76
2021/01/12 06:43:04;;;;;;;27.20;25.20;;;2.30;79.10;;;;;;5033044;28;20193;-76
2021/01/12 06:45:30;;;;;;;27.00;25.20;;;2.30;79.10;;;;;;5032879;28;20674;-76
2021/01/12 06:47:58;;;;;;;25.63;23.92;;;2.30;79.10;;;;;;5032998;28;20226;-76
2021/01/12 06:50:24;;;;;;;27.50;25.50;;;2.30;79.40;;;;;;5030702;28;20201;-76
2021/01/12 06:52:51;;;;;;;25.85;24.05;;;2.40;79.10;;;;;;5013238;28;20202;-76
2021/01/12 06:55:19;;;;;;;26.73;24.90;;;2.40;79.00;;;;;;5031415;28;20681;-77
2021/01/12 06:57:47;;;;;;;27.00;25.05;;;2.30;79.30;;;;;;5035397;28;20799;-77
2021/01/12 07:00:15;;;;;;;26.52;24.73;;;2.40;79.30;;;;;;5032558;28;20618;-76
2021/01/12 07:02:42;;;;;;;27.00;25.15;;;2.30;79.30;;;;;;5024153;28;20220;-76
2021/01/12 07:05:12;;;;;;;27.30;25.30;;;2.40;79.00;;;;;;5030304;28;20218;-76
2021/01/12 07:07:39;;;;;;;27.08;24.95;;;2.40;79.10;;;;;;5032149;28;20311;-77
2021/01/12 07:10:08;;;;;;;26.85;25.10;;;2.40;79.20;;;;;;5032709;28;20244;-76
2021/01/12 07:12:35;;;;;;;25.67;23.88;;;2.40;79.20;;;;;;5032449;28;20194;-76
2021/01/12 07:15:10;;;;;;;27.58;25.67;;;2.50;79.30;;;;;;5027615;28;20660;-76
2021/01/12 07:17:42;;;;;;;29.05;26.45;;;2.60;79.10;;;;;;5020777;28;20210;-76
2021/01/12 07:20:15;;;;;;;26.95;24.85;;;2.50;79.30;;;;;;5015292;28;21804;-76
2021/01/12 07:22:43;;;;;;;26.27;24.40;;;2.60;79.30;;;;;;5032560;28;20205;-76
2021/01/12 07:25:11;;;;;;;26.92;25.13;;;2.60;79.10;;;;;;5032309;28;20203;-76
2021/01/12 07:27:38;;;;;;;26.92;25.02;;;2.70;79.00;;;;;;5032294;28;20582;-76
2021/01/12 07:30:07;;;;;;;27.13;25.23;;;2.70;79.20;;;;;;5032446;28;20201;-76
2021/01/12 07:32:37;;;;;;;27.55;25.55;;;2.70;79.30;;;;;;5032635;28;20247;-76
2021/01/12 07:35:06;;;;;;;28.02;25.92;;;2.70;79.80;;;;;;5031846;28;20674;-76
2021/01/12 07:37:39;;;;;;;24.88;23.25;;;2.70;80.00;;;;;;5032681;28;20213;-76
2021/01/12 07:40:07;;;;;;;25.58;23.80;;;2.70;80.30;;;;;;5036276;28;20662;-76
2021/01/12 07:42:34;;;;;;;27.08;25.17;;;2.70;80.40;;;;;;5035761;28;20223;-76
2021/01/12 07:45:01;;;;;;;25.83;24.00;;;2.80;80.10;;;;;;5031961;28;20272;-76
2021/01/12 07:47:28;;;;;;;25.42;23.63;;;2.80;80.30;;;;;;5016922;28;20288;-76
2021/01/12 07:49:55;;;;;;;24.95;23.25;;;2.90;80.60;;;;;;5033932;28;20229;-76
2021/01/12 07:52:23;;;;;;;25.02;23.38;;;2.80;80.70;;;;;;5016347;28;20206;-76
2021/01/12 07:54:51;;;;;;;24.40;22.80;;;2.80;81.00;;;;;;5015919;28;20256;-76
2021/01/12 07:57:18;;;;;;;25.38;23.77;;;2.90;80.80;;;;;;5033218;28;20568;-76
2021/01/12 07:59:44;;;;;;;24.00;22.50;;;2.90;80.80;;;;;;5021959;28;20206;-76
2021/01/12 08:02:13;;;;;;;25.98;24.17;;;2.90;81.20;;;;;;5016049;28;20206;-76
2021/01/12 08:04:40;;;;;;;25.55;23.88;;;2.90;81.20;;;;;;5016146;28;20205;-76
2021/01/12 08:07:08;;;;;;;25.00;23.33;;;3.00;81.00;;;;;;5032382;28;20231;-76
2021/01/12 08:09:35;;;;;;;25.65;23.95;;;3.00;80.70;;;;;;5035643;28;20670;-76
2021/01/12 08:12:04;;;;;;;25.40;23.60;;;3.00;80.60;;;;;;5035674;28;20582;-76
2021/01/12 08:14:31;;;;;;;25.00;23.15;;;3.10;80.70;;;;;;5030740;28;20197;-76
2021/01/12 08:17:03;;;;;;;25.73;24.02;;;3.10;80.80;;;;;;5035391;28;20308;-76
2021/01/12 08:19:29;;;;;;;24.85;23.45;;;3.10;80.80;;;;;;5035644;28;20201;-76
2021/01/12 08:21:56;;;;;;;24.50;22.90;;;3.10;80.90;;;;;;5035520;28;20193;-76
2021/01/12 08:24:27;;;;;;;24.77;23.25;;;3.10;81.00;;;;;;5017759;28;20272;-76
2021/01/12 08:26:54;;;;;;;25.00;23.20;;;3.20;81.30;;;;;;5015442;28;20226;-76
2021/01/12 08:29:26;;;;;;;23.85;22.45;;;3.20;81.20;;;;;;5028212;28;20205;-76
2021/01/12 08:32:02;;;;;;;24.33;22.73;;;3.30;81.40;;;;;;5020138;28;20197;-76
2021/01/12 08:34:36;;;;;;;24.85;23.25;;;3.30;81.30;;;;;;5028871;28;20280;-76
2021/01/12 08:37:05;;;;;;;24.50;22.80;;;3.40;81.30;;;;;;5015239;28;20708;-76
2021/01/12 08:39:32;;;;;;;23.60;22.13;;;3.40;81.60;;;;;;5031556;28;20193;-76
2021/01/12 08:42:01;;;;;;;23.63;22.13;;;3.40;81.60;;;;;;5035134;28;20677;-76
2021/01/12 08:44:35;;;;;;;21.77;20.48;;;3.40;81.80;;;;;;5035137;28;20244;-76
2021/01/12 08:47:05;;;;;;;23.92;22.42;;;3.50;82.00;;;;;;5034519;28;20231;-76
2021/01/12 08:49:32;;;;;;;23.05;21.60;;;3.50;82.20;;;;;;5017416;28;20670;-77
2021/01/12 08:51:59;;;;;;;21.83;20.52;;;3.50;82.20;;;;;;5015171;28;20199;-76
2021/01/12 08:54:25;;;;;;;21.35;20.05;;;3.60;82.30;;;;;;5015412;28;20186;-76
2021/01/12 08:56:56;;;;;;;23.13;21.60;;;3.70;82.10;;;;;;5017240;28;20213;-76
2021/01/12 08:59:29;;;;;;;22.23;21.08;;;3.70;82.30;;;;;;5034252;28;21356;-77
2021/01/12 09:01:57;;;;;;;21.77;20.38;;;3.70;82.20;;;;;;5034695;28;20205;-76
2021/01/12 09:04:23;;;;;;;20.80;19.60;;;3.70;82.50;;;;;;5034807;28;20209;-76
2021/01/12 09:07:01;;;;;;;20.45;19.30;;;3.70;82.50;;;;;;5033488;28;20217;-76
2021/01/12 09:09:27;;;;;;;20.48;19.17;;;3.50;83.10;;;;;;5014929;28;20644;-76
2021/01/12 09:11:58;;;;;;;21.77;20.52;;;3.60;83.10;;;;;;5014951;28;20204;-76
2021/01/12 09:14:25;;;;;;;20.85;19.75;;;3.60;83.50;;;;;;5020730;28;20194;-76
2021/01/12 09:16:58;;;;;;;20.50;19.30;;;3.70;83.40;;;;;;5034004;28;20767;-76
2021/01/12 09:19:25;;;;;;;19.25;18.25;;;3.70;83.30;;;;;;5034481;28;20296;-76
2021/01/12 09:21:52;;;;;;;20.67;19.50;;;3.80;83.30;;;;;;5034687;28;20204;-76
2021/01/12 09:24:20;;;;;;;19.65;18.55;;;3.80;83.10;;;;;;5017552;28;20194;-76
2021/01/12 09:26:47;;;;;;;22.40;20.88;;;3.90;83.30;;;;;;5014327;28;20221;-76
2021/01/12 09:29:14;;;;;;;20.80;19.60;;;3.90;83.00;;;;;;5014413;28;20217;-76
2021/01/12 09:31:45;;;;;;;20.38;19.17;;;3.90;83.30;;;;;;5014574;28;20220;-76
2021/01/12 09:34:19;;;;;;;20.77;19.45;;;3.90;83.90;;;;;;5029935;28;20680;-76
2021/01/12 09:36:45;;;;;;;20.10;19.00;;;3.90;84.10;;;;;;5026889;28;20209;-76
2021/01/12 09:39:12;;;;;;;18.65;17.75;;;4.00;83.90;;;;;;5032346;28;20181;-77
2021/01/12 09:41:40;;;;;;;18.95;17.92;;;4.00;83.90;;;;;;5015573;28;20194;-76
2021/01/12 09:44:07;;;;;;;21.30;20.10;;;4.00;83.70;;;;;;5014642;28;20248;-76
2021/01/12 09:46:33;;;;;;;19.25;18.25;;;4.00;83.80;;;;;;5014794;28;20225;-77
2021/01/12 09:49:00;;;;;;;19.90;18.90;;;4.00;83.90;;;;;;5027467;28;20220;-77
2021/01/12 09:51:27;;;;;;;18.23;17.33;;;4.00;84.10;;;;;;5034372;28;20208;-76
2021/01/12 09:53:54;;;;;;;18.45;17.55;;;4.00;84.20;;;;;;5033670;28;20280;-76
2021/01/12 09:56:21;;;;;;;17.50;16.70;;;4.10;84.40;;;;;;5033204;28;20583;-76
2021/01/12 09:58:50;;;;;;;18.52;17.52;;;4.00;85.00;;;;;;5024201;28;20252;-76
2021/01/12 10:01:17;;;;;;;17.00;16.20;;;4.10;85.20;;;;;;5013325;28;20190;-76
2021/01/12 10:03:43;;;;;;;17.98;17.08;;;4.10;85.60;;;;;;5019948;28;20198;-76
2021/01/12 10:06:16;;;;;;;17.23;16.13;;;4.10;85.80;;;;;;5022598;28;20224;-76
2021/01/12 10:08:43;;;;;;;18.00;17.10;;;4.10;85.70;;;;;;5013688;28;20596;-76
2021/01/12 10:11:09;;;;;;;18.45;17.55;;;4.10;86.00;;;;;;5013628;28;20691;-76
2021/01/12 10:13:36;;;;;;;18.40;17.48;;;4.10;86.50;;;;;;5025270;28;20197;-76
2021/01/12 10:16:03;;;;;;;17.27;16.48;;;4.00;86.80;;;;;;5033304;28;20193;-76
2021/01/12 10:18:29;;;;;;;16.13;15.43;;;4.00;86.90;;;;;;5033359;28;20197;-76
2021/01/12 10:20:56;;;;;;;16.80;16.00;;;4.00;87.40;;;;;;5032995;28;20193;-76
2021/01/12 10:23:22;;;;;;;16.08;15.27;;;4.10;87.20;;;;;;5033114;28;20197;-76
2021/01/12 10:25:50;;;;;;;15.73;15.02;;;4.00;87.20;;;;;;5032779;28;20190;-76
2021/01/12 10:28:17;;;;;;;16.70;15.75;;;3.90;87.80;;;;;;5033197;28;20221;-76
2021/01/12 10:30:44;;;;;;;16.35;15.55;;;3.90;88.30;;;;;;5022709;28;20244;-76
2021/01/12 10:33:10;;;;;;;16.70;15.90;;;3.80;89.00;;;;;;5014495;28;20197;-76
2021/01/12 10:35:37;;;;;;;15.25;14.55;;;3.90;88.90;;;;;;5013154;28;20204;-76
2021/01/12 10:38:03;;;;;;;15.73;15.02;;;3.90;88.90;;;;;;5013249;28;20244;-76
2021/01/12 10:40:29;;;;;;;16.50;15.70;;;3.90;89.10;;;;;;5013597;28;20551;-76
2021/01/12 10:42:57;;;;;;;16.33;15.52;;;3.90;89.10;;;;;;5018649;28;20190;-76
2021/01/12 10:45:24;;;;;;;14.10;13.50;;;3.90;89.30;;;;;;5032881;28;20281;-76
2021/01/12 10:47:50;;;;;;;15.30;14.50;;;3.90;89.40;;;;;;5031012;28;20219;-76
2021/01/12 10:50:18;;;;;;;16.00;15.00;;;3.90;89.80;;;;;;5032836;28;20201;-76
2021/01/12 10:52:45;;;;;;;15.27;14.57;;;3.90;89.60;;;;;;5033016;28;20197;-76
2021/01/12 10:55:12;;;;;;;15.00;14.30;;;4.00;89.50;;;;;;5032909;28;20197;-76
2021/01/12 10:57:43;;;;;;;15.98;14.95;;;3.90;89.60;;;;;;5030274;28;20283;-76
2021/01/12 11:00:11;;;;;;;14.07;13.48;;;4.00;89.70;;;;;;5012934;28;20614;-76
2021/01/12 11:02:38;;;;;;;15.52;14.82;;;3.90;89.40;;;;;;5013070;28;20248;-76
2021/01/12 11:05:05;;;;;;;14.15;13.45;;;3.90;89.70;;;;;;5014012;28;20287;-76
2021/01/12 11:07:32;;;;;;;14.77;13.95;;;4.00;89.60;;;;;;5021357;28;20631;-76
2021/01/12 11:10:01;;;;;;;15.85;14.60;;;4.00;89.50;;;;;;5014864;28;20233;-76
2021/01/12 11:12:29;;;;;;;14.90;14.20;;;4.00;89.80;;;;;;5021712;28;20229;-76
2021/01/12 11:14:56;;;;;;;13.73;13.13;;;4.00;89.70;;;;;;5032546;28;20233;-76
2021/01/12 11:17:24;;;;;;;14.65;13.95;;;3.90;89.80;;;;;;5027853;28;20221;-77
2021/01/12 11:19:52;;;;;;;14.20;13.60;;;3.90;90.20;;;;;;5032399;28;20201;-76
2021/01/12 11:22:26;;;;;;;16.90;15.80;;;3.90;89.90;;;;;;5032701;28;20287;-76
2021/01/12 11:24:54;;;;;;;15.27;14.57;;;3.90;89.90;;;;;;5032668;28;20222;-77
2021/01/12 11:27:21;;;;;;;14.82;14.13;;;3.90;89.90;;;;;;5030660;28;20212;-76
2021/01/12 11:29:47;;;;;;;14.18;13.35;;;4.00;89.60;;;;;;5032441;28;20209;-76
2021/01/12 11:32:15;;;;;;;13.90;13.30;;;4.00;89.90;;;;;;5032421;28;20201;-76
2021/01/12 11:34:43;;;;;;;14.70;14.00;;;4.00;89.70;;;;;;5032689;28;20251;-76
2021/01/12 11:37:13;;;;;;;14.63;13.95;;;3.90;90.10;;;;;;5030501;28;20248;-76
2021/01/12 11:39:40;;;;;;;13.40;12.80;;;3.90;90.60;;;;;;5012812;28;20236;-76
2021/01/12 11:42:10;;;;;;;15.45;14.75;;;3.90;90.80;;;;;;5021475;28;20301;-76
2021/01/12 11:44:37;;;;;;;14.15;13.55;;;4.00;90.30;;;;;;5032477;28;20288;-76
2021/01/12 11:47:04;;;;;;;14.35;13.75;;;4.00;89.90;;;;;;5032032;28;20218;-76
2021/01/12 11:49:30;;;;;;;14.05;13.25;;;4.00;90.10;;;;;;5032394;28;20221;-76
2021/01/12 11:51:57;;;;;;;13.80;13.20;;;4.10;89.90;;;;;;5024993;28;20607;-76
2021/01/12 11:54:24;;;;;;;14.25;13.55;;;4.10;89.70;;;;;;5012328;28;20251;-76
2021/01/12 11:56:55;;;;;;;14.52;13.93;;;4.10;89.90;;;;;;5012153;28;20312;-76
2021/01/12 11:59:24;;;;;;;14.15;13.55;;;4.10;89.90;;;;;;5012562;28;20198;-76
2021/01/12 12:01:52;;;;;;;13.13;12.60;;;4.10;89.60;;;;;;5017364;28;20193;-76
2021/01/12 12:04:19;;;;;;;14.45;13.85;;;4.10;89.70;;;;;;5017416;28;20198;-76
2021/01/12 12:06:47;;;;;;;13.80;13.20;;;4.10;89.90;;;;;;5012107;28;20218;-76
2021/01/12 12:09:15;;;;;;;13.30;12.80;;;4.10;90.10;;;;;;5012252;28;20225;-76
2021/01/12 12:11:42;;;;;;;13.88;13.27;;;4.10;90.10;;;;;;5012527;28;20202;-76
2021/01/12 12:14:09;;;;;;;14.70;14.10;;;4.10;90.10;;;;;;5020982;28;20247;-76
2021/01/12 12:16:36;;;;;;;14.38;13.75;;;4.10;89.50;;;;;;5030632;28;20214;-76
2021/01/12 12:19:04;;;;;;;13.73;13.23;;;4.10;89.50;;;;;;5032028;28;20201;-76
2021/01/12 12:21:31;;;;;;;14.07;13.05;;;4.20;89.80;;;;;;5031926;28;20606;-76
2021/01/12 12:23:57;;;;;;;31.65;15.15;;;4.20;89.80;;;;;;5033081;28;20205;-76
2021/01/12 12:26:25;;;;;;;14.27;13.57;;;4.30;89.50;;;;;;5018366;28;20214;-76
2021/01/12 12:28:51;;;;;;;13.45;12.85;;;4.20;89.30;;;;;;5015398;28;20226;-76
2021/01/12 12:31:18;;;;;;;14.50;13.90;;;4.20;89.30;;;;;;5015651;28;20591;-76
2021/01/12 12:33:45;;;;;;;15.70;14.65;;;4.20;89.80;;;;;;5015764;28;20247;-76
2021/01/12 12:36:15;;;;;;;14.30;13.70;;;4.20;89.80;;;;;;5015409;28;20260;-76
2021/01/12 12:38:44;;;;;;;51.50;17.75;;;4.20;89.80;;;;;;5032489;28;20198;-77